Time;durP1;ratioP1;P1;durP2;ratioP2;P2;SDS_P1;SDS_P2;PMS_P1;PMS_P2;Temp;Humidity;BMP_temperature;BMP_pressure;BME280_temperature;BME280_humidity;BME280_pressure;Samples;Min_cycle;Max_cycle;Signal;HPM_P1;HPM_P2
2021/10/24 00:02:01;;;;;;;5.07;3.40;;;;;;;4.98;63.13;93788.75;2042152;70;20151;-78
2021/10/24 00:04:27;;;;;;;5.65;3.35;;;;;;;5.12;61.46;93787.34;2041168;70;20613;-73
2021/10/24 00:06:56;;;;;;;6.55;3.35;;;;;;;5.08;62.24;93789.72;2041851;70;20150;-77
2021/10/24 00:09:21;;;;;;;5.28;3.58;;;;;;;5.01;62.12;93790.44;2041716;70;20154;-75
2021/10/24 00:11:47;;;;;;;4.32;3.00;;;;;;;4.91;62.83;93789.47;2041874;70;20163;-72
2021/10/24 00:14:13;;;;;;;6.30;3.53;;;;;;;4.52;64.47;93783.56;2041779;70;20174;-73
2021/10/24 00:16:39;;;;;;;5.88;3.10;;;;;;;4.90;62.66;93791.47;2041774;70;20175;-71
2021/10/24 00:19:04;;;;;;;5.65;3.05;;;;;;;4.80;63.13;93788.44;2041551;70;20175;-73
2021/10/24 00:21:31;;;;;;;9.77;3.40;;;;;;;4.75;63.46;93789.34;2041795;70;20605;-78
2021/10/24 00:23:57;;;;;;;7.40;3.20;;;;;;;4.68;62.82;93787.25;2041255;70;20159;-73
2021/10/24 00:26:23;;;;;;;8.75;3.33;;;;;;;4.69;63.64;93777.56;2041121;70;20128;-77
2021/10/24 00:28:48;;;;;;;6.07;3.47;;;;;;;4.64;63.74;93778.47;2043598;70;20590;-71
2021/10/24 00:31:15;;;;;;;5.47;3.13;;;;;;;4.50;64.73;93777.06;2042849;70;20128;-71
2021/10/24 00:33:41;;;;;;;5.00;3.08;;;;;;;4.52;64.11;93774.47;2041165;70;20163;-71
2021/10/24 00:36:06;;;;;;;4.88;3.20;;;;;;;4.69;63.40;93771.25;2042029;70;20215;-77
2021/10/24 00:38:32;;;;;;;5.82;2.97;;;;;;;4.67;62.62;93773.81;2041379;70;20514;-73
2021/10/24 00:40:57;;;;;;;4.95;3.10;;;;;;;4.36;65.51;93764.50;2041510;70;20226;-81
2021/10/24 00:43:23;;;;;;;3.78;2.60;;;;;;;4.72;63.12;93770.13;2041918;70;20539;-70
2021/10/24 00:45:49;;;;;;;5.65;2.60;;;;;;;4.88;61.91;93774.53;2041822;70;20163;-76
2021/10/24 00:48:18;;;;;;;3.38;2.78;;;;;;;4.75;63.20;93771.84;2041559;70;20598;-72
2021/10/24 00:50:44;;;;;;;3.88;2.55;;;;;;;4.76;62.44;93770.53;2041917;70;20151;-72
2021/10/24 00:53:14;;;;;;;7.78;2.88;;;;;;;4.61;63.44;93771.19;2041577;70;20143;-76
2021/10/24 00:55:52;;;;;;;5.50;3.10;;;;;;;4.64;62.83;93775.69;2040910;70;20190;-78
2021/10/24 00:58:19;;;;;;;4.25;2.95;;;;;;;4.09;66.26;93767.41;2040542;70;20147;-71
2021/10/24 01:00:48;;;;;;;3.90;2.83;;;;;;;4.49;64.24;93767.94;2038634;70;20250;-72
2021/10/24 01:03:14;;;;;;;7.47;3.00;;;;;;;4.46;63.56;93762.72;2041579;70;20159;-71
2021/10/24 01:05:42;;;;;;;11.38;3.03;;;;;;;4.46;63.73;93763.47;2039723;70;20172;-72
2021/10/24 01:08:09;;;;;;;3.58;2.47;;;;;;;4.57;63.61;93756.84;2039268;70;20151;-78
2021/10/24 01:10:36;;;;;;;5.13;3.00;;;;;;;4.62;62.81;93753.16;2039784;70;20131;-72
2021/10/24 01:13:02;;;;;;;4.55;2.40;;;;;;;4.80;61.47;93749.38;2042064;70;20683;-72
2021/10/24 01:15:28;;;;;;;3.67;2.55;;;;;;;4.96;60.91;93750.22;2041781;70;20140;-70
2021/10/24 01:17:54;;;;;;;3.45;2.42;;;;;;;4.90;60.78;93754.44;2038237;70;20155;-78
2021/10/24 01:20:23;;;;;;;3.17;2.33;;;;;;;4.78;61.13;93746.41;2041108;70;20583;-77
2021/10/24 01:22:50;;;;;;;3.58;2.25;;;;;;;4.95;61.13;93753.56;2041227;70;20247;-73
2021/10/24 01:25:17;;;;;;;5.18;2.40;;;;;;;4.85;61.10;93751.25;2039808;70;20203;-71
2021/10/24 01:27:45;;;;;;;5.20;2.60;;;;;;;4.75;61.44;93741.91;2041230;70;20218;-84
2021/10/24 01:30:12;;;;;;;4.47;2.38;;;;;;;4.98;59.89;93744.09;2039789;70;20151;-76
2021/10/24 01:32:37;;;;;;;6.63;2.80;;;;;;;4.47;63.83;93741.91;2041092;70;20211;-72
2021/10/24 01:35:05;;;;;;;5.88;2.72;;;;;;;4.79;61.28;93744.34;2038895;70;20151;-70
2021/10/24 01:37:36;;;;;;;5.60;2.28;;;;;;;4.68;62.05;93739.81;2038646;70;20159;-73
2021/10/24 01:40:06;;;;;;;3.42;2.22;;;;;;;4.57;62.89;93748.47;2038277;70;20679;-75
2021/10/24 01:42:32;;;;;;;3.38;2.40;;;;;;;4.73;61.02;93736.13;2038401;70;20507;-71
2021/10/24 01:44:57;;;;;;;3.75;2.28;;;;;;;4.74;61.31;93740.41;2038322;70;20139;-75
2021/10/24 01:47:23;;;;;;;4.15;2.45;;;;;;;4.77;60.83;93733.75;2039119;70;20219;-71
2021/10/24 01:49:49;;;;;;;5.68;2.40;;;;;;;4.78;60.78;93731.69;2038244;70;20193;-72
2021/10/24 01:52:16;;;;;;;5.28;2.47;;;;;;;4.78;61.19;93728.91;2038345;70;20584;-70
2021/10/24 01:54:42;;;;;;;4.15;2.60;;;;;;;4.75;61.03;93730.00;2038439;70;20154;-80
2021/10/24 01:57:08;;;;;;;4.35;2.47;;;;;;;4.71;61.84;93724.75;2038375;70;20146;-72
2021/10/24 01:59:33;;;;;;;3.72;2.17;;;;;;;4.59;62.66;93724.31;2038551;70;20147;-76
2021/10/24 02:02:17;;;;;;;2.90;2.00;;;;;;;4.66;61.91;93727.72;2039245;70;20147;-75
2021/10/24 02:05:07;;;;;;;5.15;2.13;;;;;;;4.52;62.20;93722.22;2037506;70;20190;-78
2021/10/24 02:07:33;;;;;;;4.97;2.17;;;;;;;4.61;61.42;93726.56;2038617;70;20154;-79
2021/10/24 02:09:58;;;;;;;5.85;2.60;;;;;;;4.59;61.24;93734.75;2039898;70;20234;-72
2021/10/24 02:12:24;;;;;;;3.85;2.22;;;;;;;4.52;61.03;93721.47;2040073;70;20195;-78
2021/10/24 02:14:57;;;;;;;3.25;2.28;;;;;;;4.53;61.39;93717.38;2041193;70;20202;-74
2021/10/24 02:17:23;;;;;;;6.18;2.42;;;;;;;4.51;60.42;93720.00;2038705;70;20152;-81
2021/10/24 02:19:49;;;;;;;2.72;1.80;;;;;;;4.47;60.72;93717.53;2038555;70;20151;-84
2021/10/24 02:22:15;;;;;;;3.10;2.03;;;;;;;4.46;60.82;93718.09;2038705;70;20163;-77
2021/10/24 02:24:41;;;;;;;3.60;2.10;;;;;;;4.44;61.90;93717.88;2039107;70;20139;-78
2021/10/24 02:27:07;;;;;;;2.90;2.10;;;;;;;4.52;61.57;93710.31;2038465;70;20683;-76
2021/10/24 02:29:34;;;;;;;3.63;2.10;;;;;;;4.65;60.20;93712.28;2038533;70;20203;-76
2021/10/24 02:32:00;;;;;;;4.57;2.40;;;;;;;4.46;60.86;93709.72;2035814;70;20160;-82
2021/10/24 02:34:58;;;;;;;4.00;2.13;;;;;;;4.51;60.77;93708.84;2037205;70;20674;-75
2021/10/24 02:37:31;;;;;;;4.60;2.28;;;;;;;4.48;60.55;93701.56;2038565;70;20234;-80
2021/10/24 02:39:58;;;;;;;2.92;1.85;;;;;;;4.35;61.61;93707.97;2038494;70;20147;-78
2021/10/24 02:42:31;;;;;;;3.72;2.17;;;;;;;4.50;59.90;93713.66;2038553;70;20500;-73
2021/10/24 02:44:57;;;;;;;4.60;2.40;;;;;;;4.40;60.66;93712.66;2041331;70;20152;-80
2021/10/24 02:47:23;;;;;;;4.15;2.08;;;;;;;4.48;60.11;93707.13;2039592;70;20143;-81
2021/10/24 02:49:48;;;;;;;2.72;1.98;;;;;;;4.44;60.81;93709.50;2038811;70;20159;-86
2021/10/24 02:52:15;;;;;;;3.72;2.25;;;;;;;4.40;61.67;93707.09;2038551;70;20139;-77
2021/10/24 02:54:41;;;;;;;3.15;1.90;;;;;;;4.50;60.91;93701.78;2038539;70;20144;-72
2021/10/24 02:57:07;;;;;;;3.90;2.03;;;;;;;4.49;60.81;93694.69;2038428;70;20140;-79
2021/10/24 02:59:34;;;;;;;4.60;2.08;;;;;;;4.46;60.24;93702.09;2038402;70;20147;-77
2021/10/24 03:02:00;;;;;;;4.38;1.95;;;;;;;4.37;61.10;93702.59;2038408;70;20258;-73
2021/10/24 03:04:27;;;;;;;3.28;1.83;;;;;;;4.42;61.03;93695.38;2038336;70;20143;-74
2021/10/24 03:06:53;;;;;;;4.00;1.88;;;;;;;4.49;60.50;93701.03;2038466;70;20605;-75
2021/10/24 03:09:19;;;;;;;2.70;1.73;;;;;;;4.47;61.16;93711.22;2038457;70;20262;-71
2021/10/24 03:11:45;;;;;;;4.50;2.58;;;;;;;4.09;62.38;93703.31;2038439;70;20194;-80
2021/10/24 03:14:13;;;;;;;4.68;2.60;;;;;;;4.00;62.92;93704.53;2035761;70;20188;-76
2021/10/24 03:16:40;;;;;;;4.03;2.30;;;;;;;4.05;61.57;93705.69;2038507;70;20163;-73
2021/10/24 03:19:06;;;;;;;5.18;2.45;;;;;;;4.10;62.45;93706.84;2038342;70;20148;-74
2021/10/24 03:21:32;;;;;;;5.07;2.35;;;;;;;4.05;61.34;93700.13;2038343;70;20177;-76
2021/10/24 03:24:00;;;;;;;5.07;2.50;;;;;;;4.02;61.78;93703.97;2038424;70;20144;-81
2021/10/24 03:26:27;;;;;;;5.97;3.72;;;;;;;3.79;63.98;93698.94;2038366;70;20140;-76
2021/10/24 03:28:54;;;;;;;6.38;3.60;;;;;;;4.02;61.81;93704.72;2039389;70;20184;-73
2021/10/24 03:31:20;;;;;;;5.95;3.03;;;;;;;3.75;63.73;93701.31;2038886;70;20254;-71
2021/10/24 03:33:46;;;;;;;5.07;3.25;;;;;;;3.79;62.95;93695.41;2038897;70;20247;-80
2021/10/24 03:36:13;;;;;;;7.78;3.40;;;;;;;3.55;64.32;93707.63;2039507;70;20151;-71
2021/10/24 03:38:39;;;;;;;7.35;3.15;;;;;;;3.60;63.91;93711.56;2041841;70;20175;-71
2021/10/24 03:41:05;;;;;;;4.18;2.72;;;;;;;3.63;63.43;93710.50;2041831;70;20136;-71
2021/10/24 03:43:31;;;;;;;4.53;2.88;;;;;;;3.72;63.04;93710.03;2042392;70;20216;-71
2021/10/24 03:45:58;;;;;;;5.60;2.47;;;;;;;3.64;63.46;93709.94;2040910;70;20162;-71
2021/10/24 03:48:25;;;;;;;7.22;2.75;;;;;;;3.75;62.02;93706.16;2038235;70;20200;-73
2021/10/24 03:50:51;;;;;;;6.80;2.80;;;;;;;3.61;63.74;93713.06;2038399;70;20239;-75
2021/10/24 03:53:16;;;;;;;5.22;2.33;;;;;;;3.60;63.13;93726.25;2039039;70;20556;-76
2021/10/24 03:55:42;;;;;;;4.53;2.40;;;;;;;3.74;62.79;93707.44;2041133;70;20219;-71
2021/10/24 03:58:08;;;;;;;4.25;2.42;;;;;;;3.56;62.69;93720.25;2042315;70;20143;-78
2021/10/24 04:00:34;;;;;;;8.98;2.60;;;;;;;3.59;62.71;93721.97;2038431;70;20223;-80
2021/10/24 04:03:06;;;;;;;5.13;2.38;;;;;;;3.73;61.71;93715.06;2038373;70;20156;-75
2021/10/24 04:05:38;;;;;;;2.85;1.88;;;;;;;3.78;61.52;93707.84;2038435;70;20144;-71
2021/10/24 04:08:05;;;;;;;4.47;1.90;;;;;;;3.85;61.27;93717.56;2038347;70;20171;-80
2021/10/24 04:10:32;;;;;;;3.58;2.15;;;;;;;3.96;60.75;93714.53;2038293;70;20155;-79
2021/10/24 04:12:58;;;;;;;4.82;2.10;;;;;;;3.90;60.46;93720.25;2041080;70;20140;-74
2021/10/24 04:15:25;;;;;;;6.18;1.92;;;;;;;4.00;60.42;93712.16;2038924;70;20252;-79
2021/10/24 04:17:52;;;;;;;3.55;1.98;;;;;;;4.01;60.74;93708.81;2038194;70;20151;-75
2021/10/24 04:20:20;;;;;;;7.18;1.98;;;;;;;3.86;61.04;93717.03;2035695;70;20154;-72
2021/10/24 04:22:48;;;;;;;2.90;2.08;;;;;;;3.90;60.40;93706.31;2038298;70;20167;-82
2021/10/24 04:25:14;;;;;;;4.18;1.85;;;;;;;3.70;60.75;93713.34;2038338;70;20156;-79
2021/10/24 04:27:43;;;;;;;3.35;2.15;;;;;;;3.75;61.46;93709.66;2038283;70;20156;-74
2021/10/24 04:30:10;;;;;;;3.85;1.90;;;;;;;3.80;60.99;93711.59;2038392;70;20187;-79
2021/10/24 04:32:38;;;;;;;3.97;1.65;;;;;;;3.83;60.28;93702.16;2038729;70;20155;-75
2021/10/24 04:35:05;;;;;;;3.80;1.95;;;;;;;3.95;60.30;93704.69;2038832;70;20239;-77
2021/10/24 04:37:31;;;;;;;2.38;1.63;;;;;;;3.91;60.15;93707.06;2038205;70;20155;-75
2021/10/24 04:39:57;;;;;;;2.67;1.80;;;;;;;3.74;61.22;93704.66;2039139;70;20136;-79
2021/10/24 04:42:23;;;;;;;2.70;1.75;;;;;;;3.77;61.03;93698.75;2038230;70;20213;-75
2021/10/24 04:44:50;;;;;;;3.78;1.52;;;;;;;3.69;61.03;93706.28;2038278;70;20168;-80
2021/10/24 04:47:17;;;;;;;2.92;1.70;;;;;;;3.67;61.37;93708.88;2038130;70;20527;-74
2021/10/24 04:49:44;;;;;;;4.03;1.88;;;;;;;3.90;59.94;93697.22;2038041;70;20154;-76
2021/10/24 04:52:10;;;;;;;4.82;3.08;;;;;;;3.79;60.74;93696.16;2035509;70;20151;-71
2021/10/24 04:54:36;;;;;;;6.53;4.25;;;;;;;3.78;60.30;93700.25;2038223;70;20159;-73
2021/10/24 04:57:03;;;;;;;8.23;4.55;;;;;;;3.60;62.12;93698.38;2038219;70;20152;-77
2021/10/24 04:59:29;;;;;;;28.73;13.45;;;;;;;3.68;61.23;93695.69;2041785;70;20150;-78
2021/10/24 05:01:54;;;;;;;9.57;6.65;;;;;;;3.77;60.58;93700.78;2038521;70;20151;-78
2021/10/24 05:04:20;;;;;;;5.90;4.70;;;;;;;3.59;61.77;93690.59;2038113;70;20170;-73
2021/10/24 05:06:47;;;;;;;5.03;3.15;;;;;;;3.63;61.46;93685.44;2038223;70;20523;-72
2021/10/24 05:09:13;;;;;;;9.95;5.65;;;;;;;3.78;60.30;93682.78;2038304;70;20155;-71
2021/10/24 05:11:40;;;;;;;3.45;2.05;;;;;;;3.74;60.18;93690.72;2038228;70;20168;-76
2021/10/24 05:14:09;;;;;;;5.35;3.03;;;;;;;3.62;60.79;93683.91;2038823;70;20174;-81
2021/10/24 05:16:36;;;;;;;9.50;4.50;;;;;;;3.72;59.58;93685.72;2038134;70;20580;-73
2021/10/24 05:19:03;;;;;;;5.60;2.40;;;;;;;3.61;60.53;93685.97;2038025;70;20275;-77
2021/10/24 05:21:31;;;;;;;4.30;2.53;;;;;;;3.60;60.13;93680.94;2038171;70;20882;-79
2021/10/24 05:23:57;;;;;;;18.58;8.70;;;;;;;3.81;59.02;93687.28;2038111;70;20199;-76
2021/10/24 05:26:22;;;;;;;7.97;3.67;;;;;;;3.64;60.07;93686.94;2038182;70;20144;-76
2021/10/24 05:28:48;;;;;;;5.10;3.38;;;;;;;3.71;59.75;93684.22;2038801;70;20148;-77
2021/10/24 05:31:13;;;;;;;4.20;2.10;;;;;;;3.67;60.40;93672.66;2038132;70;20159;-78
2021/10/24 05:33:50;;;;;;;17.42;9.50;;;;;;;3.71;60.45;93678.66;2038073;70;20220;-77
2021/10/24 05:36:24;;;;;;;5.05;3.00;;;;;;;3.79;59.69;93678.72;2038239;70;20227;-79
2021/10/24 05:38:50;;;;;;;5.00;2.83;;;;;;;3.84;58.63;93672.25;2038143;70;20201;-76
2021/10/24 05:41:23;;;;;;;3.63;2.00;;;;;;;3.68;60.03;93679.72;2038234;70;20183;-77
2021/10/24 05:43:49;;;;;;;2.70;1.50;;;;;;;3.72;59.26;93673.81;2040289;70;20154;-78
2021/10/24 05:46:15;;;;;;;2.75;1.85;;;;;;;3.62;59.71;93665.19;2040349;70;20147;-79
2021/10/24 05:48:41;;;;;;;6.47;2.28;;;;;;;3.56;60.08;93672.91;2038071;70;20307;-76
2021/10/24 05:51:15;;;;;;;3.47;2.50;;;;;;;3.69;59.20;93672.13;2038555;70;20151;-77
2021/10/24 05:53:40;;;;;;;3.63;2.50;;;;;;;3.58;60.06;93680.75;2038667;70;20641;-75
2021/10/24 05:56:14;;;;;;;2.90;2.20;;;;;;;3.63;59.76;93685.44;2038649;70;20140;-79
2021/10/24 05:58:43;;;;;;;7.43;4.32;;;;;;;3.82;58.97;93685.97;2038532;70;20155;-82
2021/10/24 06:01:41;;;;;;;4.72;3.35;;;;;;;3.76;59.11;93680.56;2034688;70;20204;-73
2021/10/24 06:04:25;;;;;;;4.63;2.17;;;;;;;3.68;59.51;93690.88;2039056;70;20154;-76
2021/10/24 06:07:09;;;;;;;6.05;3.22;;;;;;;3.50;60.88;93683.44;2039198;70;20635;-77
2021/10/24 06:12:59;;;;;;;7.78;3.30;;;;;;;3.46;60.67;93685.81;2038625;70;20250;-76
2021/10/24 06:15:01;;;;;;;7.60;3.78;;;;;;;3.38;61.46;93693.31;2036627;70;20649;-78
2021/10/24 06:17:27;;;;;;;10.30;4.95;;;;;;;3.48;60.71;93694.34;2039261;70;20164;-77
2021/10/24 06:19:53;;;;;;;11.15;5.85;;;;;;;3.35;61.45;93694.44;2038482;70;20148;-76
2021/10/24 06:22:18;;;;;;;7.93;4.38;;;;;;;3.19;61.73;93696.28;2038665;70;20227;-80
2021/10/24 06:24:44;;;;;;;8.40;4.10;;;;;;;3.34;60.97;93699.22;2038621;70;20154;-76
2021/10/24 06:27:15;;;;;;;5.95;3.25;;;;;;;3.35;60.65;93705.56;2038668;70;20152;-77
2021/10/24 06:29:42;;;;;;;4.90;2.97;;;;;;;3.42;59.71;93705.63;2038619;70;20148;-75
2021/10/24 06:32:09;;;;;;;5.20;3.30;;;;;;;3.52;59.93;93697.56;2038392;70;20175;-83
2021/10/24 06:35:08;;;;;;;6.72;3.60;;;;;;;3.48;59.81;93692.34;2032790;70;20638;-74
2021/10/24 06:37:54;;;;;;;4.38;2.70;;;;;;;3.52;59.66;93692.72;2038793;70;20224;-82
2021/10/24 06:40:20;;;;;;;4.38;2.55;;;;;;;3.48;59.86;93700.69;2038644;70;20247;-74
2021/10/24 06:42:54;;;;;;;3.53;2.38;;;;;;;3.35;60.48;93697.94;2039172;70;20231;-79
2021/10/24 06:45:45;;;;;;;4.55;2.42;;;;;;;3.52;59.80;93695.53;2033744;70;20212;-77
2021/10/24 06:48:37;;;;;;;4.13;2.28;;;;;;;3.62;59.33;93697.84;2034487;70;20180;-84
2021/10/24 06:51:07;;;;;;;4.57;2.88;;;;;;;3.66;59.21;93692.69;2038429;70;20159;-72
2021/10/24 06:53:51;;;;;;;4.18;2.47;;;;;;;3.82;58.47;93699.91;2038938;70;20192;-78
2021/10/24 06:56:35;;;;;;;5.88;2.33;;;;;;;3.63;59.27;93700.09;2038947;70;20243;-75
2021/10/24 06:59:27;;;;;;;3.53;2.20;;;;;;;3.78;58.27;93696.72;2035949;70;20201;-86
2021/10/24 07:02:17;;;;;;;4.38;2.10;;;;;;;3.86;58.39;93696.78;2033801;70;20621;-80
2021/10/24 07:05:01;;;;;;;6.13;3.28;;;;;;;3.76;58.63;93693.72;2038977;70;20228;-76
2021/10/24 07:07:30;;;;;;;4.07;2.00;;;;;;;3.69;58.36;93706.28;2038571;70;20606;-83
2021/10/24 07:10:02;;;;;;;4.32;1.95;;;;;;;3.78;57.84;93697.47;2038824;70;20156;-82
2021/10/24 07:12:28;;;;;;;3.95;1.98;;;;;;;3.81;57.44;93695.63;2039662;70;20155;-75
2021/10/24 07:14:54;;;;;;;4.50;2.13;;;;;;;3.97;56.76;93691.69;2038620;70;20270;-77
2021/10/24 07:17:20;;;;;;;3.80;1.60;;;;;;;3.91;57.91;93701.47;2038982;70;20163;-77
2021/10/24 07:19:45;;;;;;;4.63;2.50;;;;;;;3.95;56.88;93697.06;2038168;70;20222;-78
2021/10/24 07:22:14;;;;;;;6.78;3.08;;;;;;;3.86;56.89;93694.75;2038320;70;20243;-74
2021/10/24 07:24:58;;;;;;;7.97;2.10;;;;;;;3.98;56.97;93700.78;2038822;70;20158;-80
2021/10/24 07:27:26;;;;;;;6.28;2.85;;;;;;;4.04;56.73;93698.63;2038288;70;20144;-78
2021/10/24 07:29:51;;;;;;;5.75;2.58;;;;;;;4.09;55.89;93700.53;2039524;70;20247;-79
2021/10/24 07:32:18;;;;;;;4.75;2.42;;;;;;;4.10;56.81;93696.44;2041239;70;20143;-73
2021/10/24 07:34:51;;;;;;;5.55;2.00;;;;;;;4.12;57.54;93699.41;2039837;70;20152;-83
2021/10/24 07:37:17;;;;;;;3.75;2.55;;;;;;;4.10;57.08;93704.81;2038759;70;20227;-80
2021/10/24 07:39:42;;;;;;;7.25;3.33;;;;;;;4.04;56.56;93693.81;2038543;70;20228;-77
2021/10/24 07:42:10;;;;;;;8.30;3.90;;;;;;;3.99;56.88;93691.16;2038561;70;20147;-77
2021/10/24 07:44:37;;;;;;;7.57;4.40;;;;;;;3.99;57.02;93691.16;2038442;70;20283;-79
2021/10/24 07:47:03;;;;;;;10.45;4.80;;;;;;;3.92;57.07;93691.81;2038566;70;20242;-80
2021/10/24 07:49:29;;;;;;;6.55;3.85;;;;;;;4.05;57.34;93686.19;2038376;70;20151;-77
2021/10/24 07:51:56;;;;;;;5.82;3.78;;;;;;;3.92;57.63;93687.00;2038532;70;20148;-78
2021/10/24 07:54:22;;;;;;;9.05;3.67;;;;;;;3.83;58.07;93687.47;2038535;70;20155;-83
2021/10/24 07:56:49;;;;;;;5.88;3.00;;;;;;;3.89;57.99;93685.28;2038629;70;20150;-73
2021/10/24 07:59:27;;;;;;;4.60;2.20;;;;;;;4.04;57.90;93690.28;2038603;70;20168;-81
2021/10/24 08:01:54;;;;;;;4.65;2.15;;;;;;;4.17;57.93;93692.97;2038357;70;20600;-77
2021/10/24 08:04:21;;;;;;;2.85;1.63;;;;;;;4.09;58.58;93683.81;2038381;70;20226;-79
2021/10/24 08:06:47;;;;;;;9.07;6.07;;;;;;;4.37;59.08;93691.44;2038438;70;20583;-85
2021/10/24 08:09:14;;;;;;;11.50;5.57;;;;;;;4.81;58.08;93677.56;2038370;70;20240;-76
2021/10/24 08:11:45;;;;;;;4.93;3.20;;;;;;;5.35;58.79;93684.16;2038510;70;20174;-85
2021/10/24 08:14:12;;;;;;;10.25;6.13;;;;;;;5.60;60.36;93684.41;2038894;70;20154;-76
2021/10/24 08:16:40;;;;;;;10.05;5.72;;;;;;;6.08;57.11;93679.84;2038434;70;20148;-90
2021/10/24 08:19:08;;;;;;;15.55;7.32;;;;;;;6.11;56.81;93675.94;2038312;70;20144;-85
2021/10/24 08:21:41;;;;;;;;;;;;;;;6.82;57.94;93680.91;2038647;70;20242;-79
2021/10/24 08:24:07;;;;;;;17.48;8.32;;;;;;;7.25;56.42;93681.94;2041235;70;20143;-78
2021/10/24 08:26:41;;;;;;;8.18;5.05;;;;;;;7.65;54.55;93667.91;2038366;70;20161;-86
2021/10/24 08:29:07;;;;;;;10.23;5.88;;;;;;;7.48;53.23;93679.78;2038453;70;20239;-76
2021/10/24 08:31:36;;;;;;;7.53;5.10;;;;;;;8.33;53.70;93669.50;2039038;70;20175;-78
2021/10/24 08:34:02;;;;;;;5.22;3.42;;;;;;;8.88;51.84;93664.94;2038613;70;20152;-75
2021/10/24 08:36:29;;;;;;;4.13;2.90;;;;;;;9.04;49.02;93668.34;2039410;70;20227;-81
2021/10/24 08:38:57;;;;;;;4.07;2.75;;;;;;;9.25;49.43;93665.09;2039128;70;20146;-82
2021/10/24 08:41:27;;;;;;;10.18;5.47;;;;;;;9.16;46.96;93656.03;2038861;70;20170;-88
2021/10/24 08:44:01;;;;;;;13.20;6.60;;;;;;;9.38;47.75;93657.06;2039138;70;20246;-80
2021/10/24 08:46:27;;;;;;;10.90;5.45;;;;;;;9.55;47.65;93658.38;2039017;70;20155;-80
2021/10/24 08:48:56;;;;;;;8.30;4.47;;;;;;;9.48;48.05;93659.19;2039242;70;20144;-78
2021/10/24 08:51:22;;;;;;;7.47;4.03;;;;;;;10.06;48.30;93648.31;2039261;70;20608;-78
2021/10/24 08:53:49;;;;;;;6.38;4.05;;;;;;;9.83;47.00;93645.81;2038800;70;20150;-80
2021/10/24 08:56:19;;;;;;;6.07;3.85;;;;;;;10.27;46.93;93653.47;2038726;70;20166;-79
2021/10/24 08:58:45;;;;;;;7.82;3.88;;;;;;;10.66;46.98;93659.94;2038799;70;20523;-79
2021/10/24 09:01:12;;;;;;;7.03;3.63;;;;;;;10.14;44.97;93640.50;2037999;70;20194;-77
2021/10/24 09:03:39;;;;;;;5.40;3.55;;;;;;;11.10;45.34;93645.66;2038511;70;20581;-79
2021/10/24 09:06:08;;;;;;;5.45;2.90;;;;;;;11.05;43.35;93638.22;2038616;70;20160;-77
2021/10/24 09:08:37;;;;;;;3.45;2.15;;;;;;;11.28;42.95;93637.78;2038048;70;20197;-80
2021/10/24 09:11:02;;;;;;;4.75;2.65;;;;;;;11.77;42.41;93632.81;2038620;70;20144;-77
2021/10/24 09:13:35;;;;;;;3.28;2.00;;;;;;;12.93;41.84;93632.38;2038576;70;20163;-77
2021/10/24 09:16:04;;;;;;;2.72;1.70;;;;;;;12.98;40.17;93619.25;2038598;70;20588;-77
2021/10/24 09:18:32;;;;;;;3.97;1.50;;;;;;;13.15;39.82;93629.56;2037993;70;20174;-77
2021/10/24 09:21:19;;;;;;;3.25;1.80;;;;;;;13.61;37.82;93620.56;2038036;70;20178;-77
2021/10/24 09:23:50;;;;;;;4.07;2.92;;;;;;;13.97;38.29;93616.47;2040255;70;20596;-76
2021/10/24 09:26:24;;;;;;;3.70;3.10;;;;;;;13.28;37.41;93612.03;2039831;70;20232;-76
2021/10/24 09:29:06;;;;;;;4.05;2.80;;;;;;;13.65;37.36;93614.41;2041252;70;20409;-78
2021/10/24 09:31:43;;;;;;;2.63;2.08;;;;;;;14.22;34.64;93606.66;2039077;70;20639;-77
2021/10/24 09:34:14;;;;;;;3.85;1.60;;;;;;;14.47;35.02;93606.78;2038946;70;20174;-74
2021/10/24 09:37:01;;;;;;;1.38;1.20;;;;;;;14.58;34.19;93611.00;2039069;70;20332;-79
2021/10/24 09:39:37;;;;;;;1.70;1.20;;;;;;;15.38;34.54;93612.84;2039305;70;20160;-78
2021/10/24 09:42:19;;;;;;;2.70;1.52;;;;;;;15.19;33.56;93605.38;2039066;70;20157;-80
2021/10/24 09:45:06;;;;;;;4.95;2.85;;;;;;;15.82;34.67;93606.16;2039101;70;20151;-81
2021/10/24 09:47:34;;;;;;;2.03;1.52;;;;;;;16.13;33.68;93617.09;2039112;70;20168;-76
2021/10/24 09:50:00;;;;;;;2.90;1.20;;;;;;;16.88;30.96;93611.13;2038956;70;20239;-81
2021/10/24 09:52:31;;;;;;;2.08;1.42;;;;;;;17.13;30.02;93610.25;2039248;70;20238;-79
2021/10/24 09:54:59;;;;;;;2.33;1.25;;;;;;;17.43;31.25;93593.97;2038498;70;20151;-80
2021/10/24 09:57:25;;;;;;;2.80;1.50;;;;;;;17.25;29.54;93597.38;2039120;70;20160;-77
2021/10/24 09:59:55;;;;;;;2.85;1.40;;;;;;;17.26;31.03;93598.13;2039044;70;20188;-76
2021/10/24 10:02:22;;;;;;;1.85;1.40;;;;;;;17.86;30.12;93596.81;2042223;70;20673;-76
2021/10/24 10:04:49;;;;;;;2.90;1.38;;;;;;;17.33;29.81;93593.47;2045659;70;20139;-77
2021/10/24 10:07:16;;;;;;;2.35;1.33;;;;;;;15.72;30.54;93589.28;2045535;70;20141;-76
2021/10/24 10:09:45;;;;;;;2.60;1.50;;;;;;;18.16;29.69;93577.56;2045510;70;20214;-74
2021/10/24 10:12:17;;;;;;;2.65;1.55;;;;;;;18.16;31.25;93583.28;2045308;70;20305;-76
2021/10/24 10:14:45;;;;;;;3.38;1.58;;;;;;;17.23;29.19;93576.63;2044563;70;20575;-80
2021/10/24 10:17:22;;;;;;;4.57;1.70;;;;;;;18.22;31.27;93574.28;2044788;70;20175;-78
2021/10/24 10:19:47;;;;;;;2.42;1.50;;;;;;;18.14;28.09;93568.91;2045789;70;20157;-72
2021/10/24 10:22:27;;;;;;;2.72;2.05;;;;;;;17.92;29.53;93568.63;2044958;70;20151;-77
2021/10/24 10:24:55;;;;;;;1.67;1.33;;;;;;;19.12;29.71;93561.91;2045100;70;20533;-74
2021/10/24 10:27:27;;;;;;;2.72;1.20;;;;;;;19.46;28.82;93565.47;2045175;70;20163;-75
2021/10/24 10:29:58;;;;;;;1.73;1.25;;;;;;;20.24;26.91;93560.75;2045288;70;20143;-75
2021/10/24 10:32:43;;;;;;;1.95;1.30;;;;;;;20.21;28.07;93556.34;2045360;70;20162;-76
2021/10/24 10:35:17;;;;;;;1.30;1.20;;;;;;;20.33;26.93;93547.50;2044885;70;20151;-75
2021/10/24 10:38:05;;;;;;;1.90;1.30;;;;;;;19.24;29.23;93553.09;2044650;70;20607;-74
2021/10/24 10:40:34;;;;;;;3.13;1.60;;;;;;;19.28;26.87;93547.56;2044931;70;20182;-79
2021/10/24 10:43:21;;;;;;;1.77;1.33;;;;;;;21.59;26.25;93544.84;2045179;70;20170;-73
2021/10/24 10:45:58;;;;;;;2.60;1.60;;;;;;;21.16;24.72;93549.06;2045119;70;20126;-76
2021/10/24 10:48:24;;;;;;;2.90;1.10;;;;;;;21.58;24.00;93549.84;2039127;70;20148;-74
2021/10/24 10:50:55;;;;;;;1.20;1.10;;;;;;;23.23;22.69;93539.75;2040350;70;20146;-75
2021/10/24 10:53:33;;;;;;;2.40;1.05;;;;;;;25.63;21.17;93546.63;2041179;70;20615;-73
2021/10/24 10:55:58;;;;;;;1.58;0.90;;;;;;;27.23;18.17;93538.94;2040631;70;20202;-74
2021/10/24 10:58:38;;;;;;;1.98;1.10;;;;;;;27.16;17.97;93538.13;2041684;70;20150;-76
2021/10/24 11:01:06;;;;;;;2.00;0.70;;;;;;;28.18;17.86;93530.50;2040655;70;20261;-76
2021/10/24 11:04:09;;;;;;;1.45;0.93;;;;;;;28.52;17.53;93529.31;2040342;70;20207;-77
2021/10/24 11:06:38;;;;;;;0.95;0.60;;;;;;;28.36;16.89;93527.75;2041217;70;20144;-77
2021/10/24 11:09:04;;;;;;;1.42;0.93;;;;;;;28.53;16.87;93528.56;2041477;70;20246;-76
2021/10/24 11:11:45;;;;;;;1.30;0.80;;;;;;;29.65;15.92;93525.50;2041447;70;20151;-76
2021/10/24 11:14:15;;;;;;;;;;;;;;;31.31;16.17;93529.72;2041844;70;20254;-75
2021/10/24 11:17:31;;;;;;;1.38;1.05;;;;;;;31.02;15.80;93523.28;2040897;70;20063;-75
2021/10/24 11:19:58;;;;;;;2.13;0.85;;;;;;;30.20;16.57;93516.13;2042514;70;20632;-75
2021/10/24 11:22:24;;;;;;;1.05;0.90;;;;;;;30.24;15.59;93516.88;2041216;70;20631;-76
2021/10/24 11:24:54;;;;;;;1.10;0.82;;;;;;;31.20;16.19;93510.84;2044775;70;20153;-75
2021/10/24 11:27:38;;;;;;;2.47;0.88;;;;;;;30.48;15.87;93513.19;2043427;70;20190;-73
2021/10/24 11:30:13;;;;;;;2.63;0.80;;;;;;;30.80;16.36;93503.72;2043420;70;20147;-74
2021/10/24 11:32:40;;;;;;;4.03;0.90;;;;;;;30.64;15.89;93498.63;2043948;70;20287;-78
2021/10/24 11:35:08;;;;;;;1.25;0.93;;;;;;;30.72;14.40;93488.50;2042837;70;20153;-74
2021/10/24 11:37:44;;;;;;;1.90;0.90;;;;;;;29.51;16.61;93485.56;2043628;70;20166;-74
2021/10/24 11:40:17;;;;;;;0.63;0.63;;;;;;;31.47;16.03;93482.38;2043259;70;20155;-73
2021/10/24 11:42:58;;;;;;;0.80;0.80;;;;;;;31.59;13.85;93484.50;2035481;70;20198;-74
2021/10/24 11:45:26;;;;;;;0.93;0.77;;;;;;;29.02;15.59;93468.00;2043848;70;20179;-73
2021/10/24 11:48:10;;;;;;;1.08;0.80;;;;;;;30.01;15.53;93469.66;2043544;70;20235;-73
2021/10/24 11:50:43;;;;;;;0.82;0.80;;;;;;;31.29;14.46;93467.94;2042852;70;20637;-75
2021/10/24 11:53:11;;;;;;;0.98;0.80;;;;;;;32.31;14.82;93464.31;2040989;70;20581;-74
2021/10/24 11:55:38;;;;;;;0.80;0.70;;;;;;;30.37;15.29;93454.38;2042954;70;20151;-79